createdAt,value
2022-08-07T00:00:24.336Z,10.07
2022-08-07T00:02:53.516Z,8.27
2022-08-07T00:05:23.676Z,8.65
2022-08-07T00:08:00.170Z,7.82
2022-08-07T00:10:30.385Z,8.07
2022-08-07T00:13:17.478Z,10.00
2022-08-07T00:15:52.182Z,7.90
2022-08-07T00:18:24.528Z,8.55
2022-08-07T00:21:04.036Z,8.52
2022-08-07T00:23:37.726Z,8.18
2022-08-07T00:26:18.627Z,9.00
2022-08-07T00:28:58.365Z,9.18
2022-08-07T00:31:37.980Z,9.15
2022-08-07T00:34:09.504Z,9.23
2022-08-07T00:36:38.669Z,9.57
2022-08-07T00:39:16.193Z,8.82
2022-08-07T00:41:53.515Z,7.72
2022-08-07T00:44:28.435Z,8.23
2022-08-07T00:46:55.580Z,8.02
2022-08-07T00:49:25.002Z,8.07
2022-08-07T00:52:10.602Z,8.38
2022-08-07T00:54:41.345Z,7.97
2022-08-07T00:57:10.243Z,8.45
2022-08-07T00:59:39.252Z,7.85
2022-08-07T01:02:14.051Z,9.30
2022-08-07T01:04:56.905Z,6.93
2022-08-07T01:07:28.366Z,8.45
2022-08-07T01:10:05.754Z,8.43
2022-08-07T01:12:35.589Z,8.18
2022-08-07T01:15:04.235Z,7.45
2022-08-07T01:17:32.818Z,8.13
2022-08-07T01:20:16.678Z,9.10
2022-08-07T01:22:58.357Z,9.10
2022-08-07T01:25:40.515Z,8.60
2022-08-07T01:28:22.125Z,7.50
2022-08-07T01:30:52.847Z,7.40
2022-08-07T01:33:23.596Z,8.05
2022-08-07T01:36:06.169Z,8.60
2022-08-07T01:38:36.952Z,7.78
2022-08-07T01:41:13.969Z,7.88
2022-08-07T01:43:54.386Z,7.60
2022-08-07T01:46:21.840Z,6.63
2022-08-07T01:48:48.997Z,7.75
2022-08-07T01:54:21.962Z,7.90
2022-08-07T01:57:26.573Z,7.80
2022-08-07T02:00:01.064Z,7.95
2022-08-07T02:03:12.016Z,7.43
2022-08-07T02:05:47.908Z,7.82
2022-08-07T02:08:27.300Z,7.97
2022-08-07T02:10:58.690Z,7.75
2022-08-07T02:13:57.732Z,6.88
2022-08-07T02:16:33.401Z,8.90
2022-08-07T02:20:07.204Z,7.50
2022-08-07T02:21:59.704Z,7.50
2022-08-07T02:24:29.426Z,7.85
2022-08-07T02:27:02.685Z,6.80
2022-08-07T02:29:34.461Z,6.65
2022-08-07T02:32:11.237Z,8.13
2022-08-07T02:34:50.988Z,7.10
2022-08-07T02:37:25.113Z,7.78
2022-08-07T02:40:11.914Z,7.70
2022-08-07T02:42:46.168Z,6.70
2022-08-07T02:45:58.287Z,6.63
2022-08-07T02:48:05.377Z,7.07
2022-08-07T02:53:12.281Z,7.50
2022-08-07T02:56:03.370Z,6.88
2022-08-07T02:58:34.534Z,6.50
2022-08-07T03:01:04.150Z,7.65
2022-08-07T03:03:50.038Z,7.43
2022-08-07T03:06:29.641Z,6.88
2022-08-07T03:09:03.819Z,5.93
2022-08-07T03:11:38.638Z,6.65
2022-08-07T03:14:07.614Z,6.97
2022-08-07T03:16:35.715Z,6.85
2022-08-07T03:19:04.929Z,6.38
2022-08-07T03:21:33.549Z,6.88
2022-08-07T03:24:19.990Z,6.22
2022-08-07T03:26:58.556Z,6.03
2022-08-07T03:29:37.787Z,6.45
2022-08-07T03:32:13.172Z,5.97
2022-08-07T03:34:47.401Z,6.05
2022-08-07T03:37:37.367Z,6.80
2022-08-07T03:40:15.923Z,5.95
2022-08-07T03:42:45.244Z,6.85
2022-08-07T03:45:29.817Z,7.50
2022-08-07T03:48:02.099Z,7.20
2022-08-07T03:50:34.967Z,6.55
2022-08-07T03:53:03.203Z,5.95
2022-08-07T03:55:46.164Z,5.72
2022-08-07T03:59:07.359Z,6.05
2022-08-07T04:01:11.547Z,6.28
2022-08-07T04:03:53.637Z,5.85
2022-08-07T04:06:38.044Z,6.47
2022-08-07T04:09:15.613Z,5.10
2022-08-07T04:12:27.090Z,6.03
2022-08-07T04:14:38.791Z,5.88
2022-08-07T04:17:20.051Z,5.60
2022-08-07T04:19:51.873Z,5.95
2022-08-07T04:22:22.979Z,5.72
2022-08-07T04:24:51.527Z,6.00
2022-08-07T04:27:25.196Z,6.53
2022-08-07T04:30:02.284Z,6.45
2022-08-07T04:32:58.409Z,6.55
2022-08-07T04:35:35.187Z,7.38
2022-08-07T04:38:08.429Z,5.90
2022-08-07T04:40:52.522Z,6.53
2022-08-07T04:44:10.625Z,5.80
2022-08-07T04:47:05.033Z,6.47
2022-08-07T04:49:25.578Z,6.28
2022-08-07T04:52:02.175Z,5.82
2022-08-07T04:55:01.823Z,6.40
2022-08-07T04:58:11.900Z,5.25
2022-08-07T05:00:53.848Z,5.85
2022-08-07T05:04:00.604Z,6.47
2022-08-07T05:06:43.187Z,5.80
2022-08-07T05:09:28.002Z,6.85
2022-08-07T05:12:15.641Z,5.68
2022-08-07T05:15:04.583Z,5.00
2022-08-07T05:17:52.528Z,5.70
2022-08-07T05:20:31.118Z,6.32
2022-08-07T05:23:05.967Z,6.68
2022-08-07T05:26:10.662Z,6.32
2022-08-07T05:28:35.458Z,5.55
2022-08-07T05:31:04.566Z,7.13
2022-08-07T05:33:36.910Z,5.25
2022-08-07T05:36:12.086Z,5.50
2022-08-07T05:39:01.140Z,5.63
2022-08-07T05:42:02.397Z,5.60
2022-08-07T05:44:29.434Z,6.00
2022-08-07T05:47:01.079Z,5.72
2022-08-07T05:49:40.615Z,5.82
2022-08-07T05:52:11.620Z,6.68
2022-08-07T05:54:44.578Z,6.47
2022-08-07T05:57:26.648Z,5.97
2022-08-07T06:00:01.332Z,7.35
2022-08-07T06:02:40.767Z,6.22
2022-08-07T06:05:15.826Z,6.70
2022-08-07T06:08:14.885Z,6.10
2022-08-07T06:10:37.600Z,6.80
2022-08-07T06:13:06.646Z,5.95
2022-08-07T06:15:42.968Z,6.63
2022-08-07T06:18:16.503Z,5.68
2022-08-07T06:20:50.241Z,7.30
2022-08-07T06:24:38.479Z,5.88
2022-08-07T06:26:27.539Z,6.90
2022-08-07T06:29:01.232Z,6.57
2022-08-07T06:31:46.482Z,6.30
2022-08-07T06:34:20.448Z,6.88
2022-08-07T06:36:51.941Z,5.63
2022-08-07T06:40:18.024Z,6.53
2022-08-07T06:42:37.662Z,6.28
2022-08-07T06:47:48.097Z,5.38
2022-08-07T06:50:27.723Z,5.45
2022-08-07T06:52:59.490Z,6.68
2022-08-07T06:55:48.030Z,6.68
2022-08-07T06:58:21.441Z,7.07
2022-08-07T07:01:06.285Z,6.20
2022-08-07T07:03:47.855Z,5.95
2022-08-07T07:06:23.781Z,6.82
2022-08-07T07:08:51.114Z,6.13
2022-08-07T07:12:08.389Z,6.63
2022-08-07T07:14:08.307Z,6.35
2022-08-07T07:16:49.474Z,6.78
2022-08-07T07:22:36.262Z,5.10
2022-08-07T07:26:33.868Z,6.30
2022-08-07T07:28:42.624Z,5.70
2022-08-07T07:31:21.532Z,6.22
2022-08-07T07:33:56.868Z,5.47
2022-08-07T07:36:32.219Z,6.80
2022-08-07T07:39:02.644Z,7.32
2022-08-07T07:42:02.182Z,7.10
2022-08-07T07:44:26.613Z,7.93
2022-08-07T07:47:04.253Z,6.93
2022-08-07T07:50:33.757Z,6.05
2022-08-07T07:52:32.603Z,6.50
2022-08-07T07:55:00.841Z,6.22
2022-08-07T07:57:51.770Z,6.80
2022-08-07T08:00:28.800Z,6.22
2022-08-07T08:03:05.642Z,6.07
2022-08-07T08:05:50.771Z,6.00
2022-08-07T08:08:34.704Z,7.10
2022-08-07T08:11:09.018Z,6.72
2022-08-07T08:13:54.548Z,6.63
2022-08-07T08:16:50.428Z,6.70
2022-08-07T08:20:17.446Z,5.55
2022-08-07T08:22:54.349Z,6.57
2022-08-07T08:25:48.963Z,5.22
2022-08-07T08:28:37.257Z,4.50
2022-08-07T08:31:10.805Z,4.90
2022-08-07T08:33:49.283Z,6.07
2022-08-07T08:36:30.399Z,5.60
2022-08-07T08:39:05.360Z,4.80
2022-08-07T08:41:58.695Z,4.93
2022-08-07T08:44:38.335Z,4.25
2022-08-07T08:47:26.420Z,4.50
2022-08-07T08:50:17.582Z,4.03
2022-08-07T08:53:19.409Z,3.65
2022-08-07T08:55:59.541Z,4.32
2022-08-07T08:58:50.626Z,6.50
2022-08-07T09:01:21.419Z,4.35
2022-08-07T09:04:08.216Z,5.30
2022-08-07T09:07:11.136Z,5.15
2022-08-07T09:09:42.827Z,5.68
2022-08-07T09:12:30.977Z,5.50
2022-08-07T09:16:24.812Z,4.65
2022-08-07T09:18:07.157Z,4.47
2022-08-07T09:21:05.012Z,5.40
2022-08-07T09:24:54.109Z,5.77
2022-08-07T09:26:53.277Z,5.55
2022-08-07T09:30:05.592Z,6.07
2022-08-07T09:32:49.648Z,5.38
2022-08-07T09:36:03.453Z,5.23
2022-08-07T09:39:06.258Z,5.30
2022-08-07T09:41:59.045Z,6.18
2022-08-07T09:47:24.047Z,5.22
2022-08-07T09:48:06.358Z,5.55
2022-08-07T09:50:44.588Z,4.57
2022-08-07T09:53:20.292Z,5.72
2022-08-07T09:56:05.703Z,5.18
2022-08-07T09:59:07.650Z,5.95
2022-08-07T10:02:10.928Z,5.18
2022-08-07T10:04:54.960Z,5.03
2022-08-07T10:07:52.392Z,4.85
2022-08-07T10:14:01.360Z,6.25
2022-08-07T10:16:38.023Z,4.47
2022-08-07T10:19:30.041Z,4.35
2022-08-07T10:22:16.182Z,4.88
2022-08-07T10:25:02.763Z,5.93
2022-08-07T10:27:51.135Z,4.95
2022-08-07T10:30:40.849Z,5.10
2022-08-07T10:33:16.813Z,3.75
2022-08-07T10:36:14.176Z,4.85
2022-08-07T10:38:58.775Z,4.55
2022-08-07T10:41:51.894Z,4.20
2022-08-07T10:44:38.654Z,4.68
2022-08-07T10:47:13.978Z,5.10
2022-08-07T10:49:50.990Z,4.82
2022-08-07T10:52:31.730Z,5.25
2022-08-07T10:55:37.844Z,4.07
2022-08-07T10:58:13.995Z,5.05
2022-08-07T11:00:55.877Z,4.00
2022-08-07T11:03:47.886Z,5.57
2022-08-07T11:06:29.278Z,5.60
2022-08-07T11:09:02.412Z,5.68
2022-08-07T11:11:59.303Z,4.85
2022-08-07T11:14:44.756Z,4.82
2022-08-07T11:17:42.822Z,4.30
2022-08-07T11:20:24.931Z,5.47
2022-08-07T11:23:26.262Z,4.55
2022-08-07T11:26:17.121Z,5.00
2022-08-07T11:29:13.121Z,6.05
2022-08-07T11:31:56.013Z,5.63
2022-08-07T11:34:36.990Z,4.95
2022-08-07T11:37:58.174Z,5.78
2022-08-07T11:42:01.343Z,6.40
2022-08-07T11:44:25.390Z,5.40
2022-08-07T11:47:38.999Z,5.78
2022-08-07T11:50:31.377Z,6.30
2022-08-07T11:53:05.040Z,5.88
2022-08-07T11:56:08.598Z,6.05
2022-08-07T11:58:45.742Z,5.88
2022-08-07T12:01:58.627Z,5.45
2022-08-07T12:04:50.452Z,5.40
2022-08-07T12:07:27.501Z,4.82
2022-08-07T12:10:10.544Z,4.00
2022-08-07T12:12:52.515Z,4.88
2022-08-07T12:15:46.652Z,4.95
2022-08-07T12:18:30.855Z,4.00
2022-08-07T12:21:16.002Z,4.20
2022-08-07T12:24:36.926Z,4.07
2022-08-07T12:27:05.295Z,4.40
2022-08-07T12:29:47.668Z,4.65
2022-08-07T12:32:28.016Z,4.45
2022-08-07T12:34:56.559Z,4.47
2022-08-07T12:37:28.503Z,4.85
2022-08-07T12:40:47.962Z,4.38
2022-08-07T12:43:10.122Z,4.33
2022-08-07T12:45:53.239Z,4.13
2022-08-07T12:48:28.601Z,4.22
2022-08-07T12:51:17.693Z,3.63
2022-08-07T12:54:02.638Z,3.42
2022-08-07T12:56:43.298Z,3.88
2022-08-07T12:59:22.605Z,3.38
2022-08-07T13:02:33.230Z,3.63
2022-08-07T13:05:01.363Z,3.30
2022-08-07T13:08:14.391Z,3.45
2022-08-07T13:10:51.577Z,2.83
2022-08-07T13:13:51.398Z,3.67
2022-08-07T13:16:37.549Z,3.65
2022-08-07T13:19:46.186Z,3.72
2022-08-07T13:22:45.423Z,3.80
2022-08-07T13:25:39.332Z,3.78
2022-08-07T13:28:18.721Z,3.95
2022-08-07T13:31:13.114Z,3.33
2022-08-07T13:34:30.795Z,3.85
2022-08-07T13:36:47.032Z,3.83
2022-08-07T13:40:32.818Z,4.97
2022-08-07T13:42:19.158Z,4.38
2022-08-07T13:44:55.330Z,4.65
2022-08-07T13:48:05.798Z,3.75
2022-08-07T13:50:35.671Z,4.75
2022-08-07T13:53:22.009Z,3.25
2022-08-07T13:55:54.537Z,3.10
2022-08-07T13:58:56.598Z,3.72
2022-08-07T14:01:29.384Z,3.60
2022-08-07T14:04:10.226Z,3.30
2022-08-07T14:06:47.335Z,3.03
2022-08-07T14:10:16.503Z,3.60
2022-08-07T14:12:27.453Z,2.05
2022-08-07T14:15:09.010Z,3.05
2022-08-07T14:18:23.942Z,3.33
2022-08-07T14:20:42.483Z,2.58
2022-08-07T14:23:59.382Z,2.88
2022-08-07T14:30:04.844Z,2.72
2022-08-07T14:32:05.437Z,3.05
2022-08-07T14:34:34.377Z,2.95
2022-08-07T14:37:16.814Z,2.72
2022-08-07T14:40:17.301Z,2.70
2022-08-07T14:43:01.384Z,3.10
2022-08-07T14:45:46.724Z,2.40
2022-08-07T14:48:20.445Z,3.42
2022-08-07T14:50:51.116Z,3.22
2022-08-07T14:54:03.758Z,3.63
2022-08-07T14:56:13.214Z,2.95
2022-08-07T14:58:45.384Z,4.15
2022-08-07T15:01:22.343Z,3.42
2022-08-07T15:06:40.867Z,3.60
2022-08-07T15:09:58.238Z,3.65
2022-08-07T15:12:10.068Z,3.63
2022-08-07T15:15:21.098Z,3.85
2022-08-07T15:18:03.105Z,3.10
2022-08-07T15:20:54.643Z,3.40
2022-08-07T15:26:21.194Z,3.30
2022-08-07T15:28:59.563Z,3.05
2022-08-07T15:32:01.984Z,5.88
2022-08-07T15:34:37.833Z,3.30
2022-08-07T15:40:16.029Z,3.45
2022-08-07T15:43:53.661Z,3.58
2022-08-07T15:46:32.370Z,3.67
2022-08-07T15:54:39.253Z,2.78
2022-08-07T15:57:40.119Z,3.20
2022-08-07T16:02:46.717Z,2.75
2022-08-07T16:05:18.601Z,3.03
2022-08-07T16:08:33.647Z,3.50
2022-08-07T16:10:52.093Z,3.13
2022-08-07T16:13:39.431Z,2.97
2022-08-07T16:16:47.946Z,3.40
2022-08-07T16:19:42.680Z,3.60
2022-08-07T16:22:55.219Z,2.65
2022-08-07T16:25:52.557Z,3.20
2022-08-07T16:30:06.461Z,3.00
2022-08-07T16:31:57.960Z,3.78
2022-08-07T16:34:31.635Z,3.13
2022-08-07T16:37:01.896Z,3.78
2022-08-07T16:39:55.000Z,3.47
2022-08-07T16:42:40.274Z,3.25
2022-08-07T16:46:41.005Z,3.85
2022-08-07T16:49:10.427Z,3.13
2022-08-07T16:52:01.582Z,3.80
2022-08-07T16:55:20.042Z,3.47
2022-08-07T16:58:04.234Z,3.92
2022-08-07T17:00:41.554Z,4.18
2022-08-07T17:03:17.155Z,3.50
2022-08-07T17:06:29.825Z,4.63
2022-08-07T17:09:13.819Z,3.33
2022-08-07T17:12:04.456Z,4.07
2022-08-07T17:14:48.500Z,4.40
2022-08-07T17:17:47.371Z,5.10
2022-08-07T17:20:29.917Z,3.70
2022-08-07T17:23:16.940Z,3.92
2022-08-07T17:26:23.214Z,3.08
2022-08-07T17:30:12.619Z,4.72
2022-08-07T17:32:30.526Z,4.18
2022-08-07T17:35:51.077Z,4.07
2022-08-07T17:38:33.076Z,3.40
2022-08-07T17:42:01.662Z,4.38
2022-08-07T17:44:41.470Z,4.10
2022-08-07T17:47:38.133Z,4.43
2022-08-07T17:50:36.211Z,4.40
2022-08-07T17:54:01.222Z,4.38
2022-08-07T17:56:49.444Z,4.53
2022-08-07T18:05:21.222Z,3.33
2022-08-07T18:09:00.587Z,3.95
2022-08-07T18:14:55.746Z,4.05
2022-08-07T18:18:45.242Z,4.20
2022-08-07T18:21:51.510Z,3.40
2022-08-07T18:24:47.229Z,3.83
2022-08-07T18:27:40.243Z,3.85
2022-08-07T18:30:32.357Z,4.60
2022-08-07T18:33:54.879Z,4.30
2022-08-07T18:36:54.035Z,4.07
2022-08-07T18:40:08.010Z,4.10
2022-08-07T18:43:06.547Z,4.28
2022-08-07T18:46:26.652Z,4.88
2022-08-07T18:50:03.404Z,3.78
2022-08-07T18:52:37.675Z,3.58
2022-08-07T18:55:08.393Z,3.50
2022-08-07T18:58:17.185Z,4.75
2022-08-07T19:01:05.740Z,4.35
2022-08-07T19:03:49.677Z,3.83
2022-08-07T19:06:33.792Z,3.22
2022-08-07T19:09:51.034Z,3.85
2022-08-07T19:16:02.466Z,3.50
2022-08-07T19:18:34.712Z,4.07
2022-08-07T19:21:47.621Z,3.92
2022-08-07T19:24:07.943Z,3.35
2022-08-07T19:27:08.959Z,4.15
2022-08-07T19:31:05.964Z,3.65
2022-08-07T19:32:26.002Z,3.47
2022-08-07T19:35:03.530Z,4.43
2022-08-07T19:37:57.363Z,4.20
2022-08-07T19:40:31.600Z,5.15
2022-08-07T19:43:08.801Z,4.20
2022-08-07T19:46:07.627Z,4.47
2022-08-07T19:48:42.707Z,4.38
2022-08-07T19:51:19.275Z,4.20
2022-08-07T19:54:33.550Z,4.13
2022-08-07T19:57:51.537Z,3.80
2022-08-07T19:59:40.938Z,5.18
2022-08-07T20:02:19.127Z,4.25
2022-08-07T20:04:50.266Z,4.28
2022-08-07T20:07:46.156Z,4.90
2022-08-07T20:10:36.108Z,4.50
2022-08-07T20:13:23.918Z,3.95
2022-08-07T20:15:58.408Z,5.25
2022-08-07T20:18:33.544Z,4.43
2022-08-07T20:21:14.843Z,5.15
2022-08-07T20:23:57.919Z,6.10
2022-08-07T20:26:38.687Z,4.50
2022-08-07T20:29:48.180Z,4.75
2022-08-07T20:32:11.414Z,4.72
2022-08-07T20:34:52.147Z,5.50
2022-08-07T20:37:25.561Z,5.18
2022-08-07T20:40:02.539Z,5.65
2022-08-07T20:42:33.659Z,5.20
2022-08-07T20:45:33.265Z,5.20
2022-08-07T20:47:57.870Z,4.75
2022-08-07T20:50:30.382Z,6.13
2022-08-07T20:52:57.951Z,5.63
2022-08-07T20:55:25.364Z,5.72
2022-08-07T20:58:03.305Z,5.43
2022-08-07T21:00:44.226Z,5.32
2022-08-07T21:03:16.208Z,4.88
2022-08-07T21:05:58.279Z,5.05
2022-08-07T21:08:38.158Z,6.30
2022-08-07T21:11:16.964Z,6.13
2022-08-07T21:14:29.357Z,5.53
2022-08-07T21:17:06.569Z,5.15
2022-08-07T21:19:51.659Z,5.43
2022-08-07T21:22:33.337Z,6.25
2022-08-07T21:25:29.798Z,5.65
2022-08-07T21:28:18.912Z,5.28
2022-08-07T21:31:12.530Z,5.13
2022-08-07T21:33:48.594Z,5.78
2022-08-07T21:36:50.387Z,4.80
2022-08-07T21:39:46.706Z,4.53
2022-08-07T21:46:05.273Z,4.90
2022-08-07T21:48:28.544Z,5.80
2022-08-07T21:51:02.315Z,6.18
2022-08-07T21:53:53.032Z,7.10
2022-08-07T21:56:40.260Z,5.72
2022-08-07T22:00:02.899Z,6.22
2022-08-07T22:02:31.194Z,8.13
2022-08-07T22:05:02.446Z,6.40
2022-08-07T22:07:48.608Z,6.30
2022-08-07T22:10:26.099Z,6.78
2022-08-07T22:12:57.194Z,6.75
2022-08-07T22:16:43.510Z,6.65
2022-08-07T22:18:28.160Z,6.53
2022-08-07T22:20:59.745Z,6.20
2022-08-07T22:23:40.177Z,6.05
2022-08-07T22:26:38.090Z,7.28
2022-08-07T22:29:34.077Z,7.05
2022-08-07T22:32:35.678Z,6.65
2022-08-07T22:35:04.956Z,6.55
2022-08-07T22:38:03.255Z,7.68
2022-08-07T22:40:50.123Z,6.22
2022-08-07T22:43:34.103Z,6.57
2022-08-07T22:47:01.867Z,7.82
2022-08-07T22:49:18.193Z,7.55
2022-08-07T22:52:07.136Z,8.90
2022-08-07T22:54:51.632Z,9.82
2022-08-07T22:57:40.858Z,9.75
2022-08-07T23:00:31.014Z,7.65
2022-08-07T23:03:23.770Z,7.22
2022-08-07T23:06:10.186Z,7.30
2022-08-07T23:10:00.772Z,7.18
2022-08-07T23:12:32.604Z,7.65
2022-08-07T23:16:13.063Z,8.18
2022-08-07T23:19:51.498Z,5.80
2022-08-07T23:22:52.678Z,7.13
2022-08-07T23:25:41.673Z,7.47
2022-08-07T23:28:54.429Z,8.00
2022-08-07T23:34:19.025Z,8.10
2022-08-07T23:35:01.029Z,8.23
2022-08-07T23:37:35.030Z,7.47
2022-08-07T23:40:20.576Z,7.25
2022-08-07T23:43:38.028Z,7.70
2022-08-07T23:46:30.453Z,7.30
2022-08-07T23:49:50.546Z,7.18
2022-08-07T23:52:58.189Z,6.70
2022-08-07T23:55:52.962Z,7.97
2022-08-07T23:58:29.957Z,7.47
